sensor_id;sensor_type;location;lat;lon;timestamp;P1;durP1;ratioP1;P2;durP2;ratioP2
21360;SDS011;10839;43.206;23.550;2023-05-14T00:01:59;5.25;;;3.22;;
21360;SDS011;10839;43.206;23.550;2023-05-14T00:04:25;5.65;;;2.85;;
21360;SDS011;10839;43.206;23.550;2023-05-14T00:06:51;7.03;;;3.10;;
21360;SDS011;10839;43.206;23.550;2023-05-14T00:09:17;4.53;;;3.03;;
21360;SDS011;10839;43.206;23.550;2023-05-14T00:11:44;5.35;;;3.13;;
21360;SDS011;10839;43.206;23.550;2023-05-14T00:14:10;3.85;;;3.08;;
21360;SDS011;10839;43.206;23.550;2023-05-14T00:16:36;7.07;;;3.35;;
21360;SDS011;10839;43.206;23.550;2023-05-14T00:19:01;5.03;;;3.17;;
21360;SDS011;10839;43.206;23.550;2023-05-14T00:21:27;5.25;;;3.03;;
21360;SDS011;10839;43.206;23.550;2023-05-14T00:23:53;6.80;;;3.25;;
21360;SDS011;10839;43.206;23.550;2023-05-14T00:26:19;12.70;;;3.33;;
21360;SDS011;10839;43.206;23.550;2023-05-14T00:28:45;7.72;;;2.85;;
21360;SDS011;10839;43.206;23.550;2023-05-14T00:31:12;3.38;;;3.08;;
21360;SDS011;10839;43.206;23.550;2023-05-14T00:33:38;5.97;;;3.50;;
21360;SDS011;10839;43.206;23.550;2023-05-14T00:36:04;5.68;;;3.50;;
21360;SDS011;10839;43.206;23.550;2023-05-14T00:38:30;5.90;;;3.25;;
21360;SDS011;10839;43.206;23.550;2023-05-14T00:40:56;5.22;;;3.42;;
21360;SDS011;10839;43.206;23.550;2023-05-14T00:43:22;5.38;;;3.50;;
21360;SDS011;10839;43.206;23.550;2023-05-14T00:45:50;4.40;;;3.60;;
21360;SDS011;10839;43.206;23.550;2023-05-14T00:48:17;7.25;;;4.20;;
21360;SDS011;10839;43.206;23.550;2023-05-14T00:50:45;6.40;;;4.20;;
21360;SDS011;10839;43.206;23.550;2023-05-14T00:53:13;8.23;;;4.18;;
21360;SDS011;10839;43.206;23.550;2023-05-14T00:55:40;7.22;;;3.97;;
21360;SDS011;10839;43.206;23.550;2023-05-14T00:58:11;5.05;;;3.60;;
21360;SDS011;10839;43.206;23.550;2023-05-14T01:00:38;5.65;;;3.60;;
21360;SDS011;10839;43.206;23.550;2023-05-14T01:03:05;5.47;;;3.70;;
21360;SDS011;10839;43.206;23.550;2023-05-14T01:05:38;4.82;;;3.40;;
21360;SDS011;10839;43.206;23.550;2023-05-14T01:11:24;7.50;;;3.70;;
21360;SDS011;10839;43.206;23.550;2023-05-14T01:16:28;7.45;;;3.88;;
21360;SDS011;10839;43.206;23.550;2023-05-14T01:18:57;5.60;;;3.90;;
21360;SDS011;10839;43.206;23.550;2023-05-14T01:21:46;4.55;;;3.70;;
21360;SDS011;10839;43.206;23.550;2023-05-14T01:24:11;7.10;;;3.72;;
21360;SDS011;10839;43.206;23.550;2023-05-14T01:26:37;5.05;;;3.03;;
21360;SDS011;10839;43.206;23.550;2023-05-14T01:29:07;6.70;;;3.70;;
21360;SDS011;10839;43.206;23.550;2023-05-14T01:31:42;5.03;;;3.78;;
21360;SDS011;10839;43.206;23.550;2023-05-14T01:34:10;5.90;;;3.67;;
21360;SDS011;10839;43.206;23.550;2023-05-14T01:36:39;6.43;;;4.65;;
21360;SDS011;10839;43.206;23.550;2023-05-14T01:39:06;6.72;;;4.30;;
21360;SDS011;10839;43.206;23.550;2023-05-14T01:41:34;8.93;;;5.53;;
21360;SDS011;10839;43.206;23.550;2023-05-14T01:44:02;9.52;;;5.38;;
21360;SDS011;10839;43.206;23.550;2023-05-14T01:46:31;7.25;;;4.85;;
21360;SDS011;10839;43.206;23.550;2023-05-14T01:48:58;8.73;;;5.20;;
21360;SDS011;10839;43.206;23.550;2023-05-14T01:51:24;7.20;;;4.90;;
21360;SDS011;10839;43.206;23.550;2023-05-14T01:53:51;7.55;;;5.00;;
21360;SDS011;10839;43.206;23.550;2023-05-14T01:56:18;7.70;;;4.55;;
21360;SDS011;10839;43.206;23.550;2023-05-14T01:58:46;7.35;;;4.53;;
21360;SDS011;10839;43.206;23.550;2023-05-14T02:01:12;7.50;;;5.05;;
21360;SDS011;10839;43.206;23.550;2023-05-14T02:03:38;6.97;;;5.15;;
21360;SDS011;10839;43.206;23.550;2023-05-14T02:06:04;6.28;;;4.40;;
21360;SDS011;10839;43.206;23.550;2023-05-14T02:08:30;6.18;;;4.00;;
21360;SDS011;10839;43.206;23.550;2023-05-14T02:10:57;5.55;;;3.80;;
21360;SDS011;10839;43.206;23.550;2023-05-14T02:13:24;6.75;;;4.63;;
21360;SDS011;10839;43.206;23.550;2023-05-14T02:15:51;6.10;;;4.18;;
21360;SDS011;10839;43.206;23.550;2023-05-14T02:18:17;10.13;;;4.50;;
21360;SDS011;10839;43.206;23.550;2023-05-14T02:20:43;5.90;;;4.30;;
21360;SDS011;10839;43.206;23.550;2023-05-14T02:23:09;7.03;;;4.47;;
21360;SDS011;10839;43.206;23.550;2023-05-14T02:25:34;7.60;;;4.30;;
21360;SDS011;10839;43.206;23.550;2023-05-14T02:28:00;5.18;;;4.00;;
21360;SDS011;10839;43.206;23.550;2023-05-14T02:30:26;8.00;;;4.63;;
21360;SDS011;10839;43.206;23.550;2023-05-14T02:32:52;7.72;;;4.45;;
21360;SDS011;10839;43.206;23.550;2023-05-14T02:35:19;28.30;;;13.82;;
21360;SDS011;10839;43.206;23.550;2023-05-14T02:37:45;17.20;;;9.90;;
21360;SDS011;10839;43.206;23.550;2023-05-14T02:40:11;34.03;;;20.60;;
21360;SDS011;10839;43.206;23.550;2023-05-14T02:42:36;22.83;;;13.70;;
21360;SDS011;10839;43.206;23.550;2023-05-14T02:45:02;10.50;;;6.75;;
21360;SDS011;10839;43.206;23.550;2023-05-14T02:47:28;12.48;;;7.88;;
21360;SDS011;10839;43.206;23.550;2023-05-14T02:49:54;11.13;;;7.57;;
21360;SDS011;10839;43.206;23.550;2023-05-14T02:52:20;11.38;;;7.60;;
21360;SDS011;10839;43.206;23.550;2023-05-14T02:54:46;9.55;;;7.28;;
21360;SDS011;10839;43.206;23.550;2023-05-14T02:57:12;14.85;;;10.27;;
21360;SDS011;10839;43.206;23.550;2023-05-14T02:59:38;26.80;;;17.48;;
21360;SDS011;10839;43.206;23.550;2023-05-14T03:02:03;75.32;;;37.83;;
21360;SDS011;10839;43.206;23.550;2023-05-14T03:04:29;28.38;;;18.90;;
21360;SDS011;10839;43.206;23.550;2023-05-14T03:06:55;15.85;;;11.48;;
21360;SDS011;10839;43.206;23.550;2023-05-14T03:09:21;143.00;;;83.97;;
21360;SDS011;10839;43.206;23.550;2023-05-14T03:11:48;94.63;;;54.15;;
21360;SDS011;10839;43.206;23.550;2023-05-14T03:14:14;29.73;;;20.35;;
21360;SDS011;10839;43.206;23.550;2023-05-14T03:16:40;22.58;;;14.10;;
21360;SDS011;10839;43.206;23.550;2023-05-14T03:19:06;21.15;;;12.10;;
21360;SDS011;10839;43.206;23.550;2023-05-14T03:21:34;14.02;;;10.40;;
21360;SDS011;10839;43.206;23.550;2023-05-14T03:23:59;15.18;;;9.32;;
21360;SDS011;10839;43.206;23.550;2023-05-14T03:26:25;15.50;;;9.40;;
21360;SDS011;10839;43.206;23.550;2023-05-14T03:28:51;12.27;;;10.07;;
21360;SDS011;10839;43.206;23.550;2023-05-14T03:31:17;12.98;;;9.68;;
21360;SDS011;10839;43.206;23.550;2023-05-14T03:33:43;13.38;;;9.60;;
21360;SDS011;10839;43.206;23.550;2023-05-14T03:36:09;16.13;;;10.90;;
21360;SDS011;10839;43.206;23.550;2023-05-14T03:38:35;14.50;;;10.98;;
21360;SDS011;10839;43.206;23.550;2023-05-14T03:41:01;34.85;;;21.15;;
21360;SDS011;10839;43.206;23.550;2023-05-14T03:43:26;28.88;;;19.25;;
21360;SDS011;10839;43.206;23.550;2023-05-14T03:45:53;34.70;;;21.45;;
21360;SDS011;10839;43.206;23.550;2023-05-14T03:48:19;17.92;;;12.80;;
21360;SDS011;10839;43.206;23.550;2023-05-14T03:50:45;15.75;;;11.30;;
21360;SDS011;10839;43.206;23.550;2023-05-14T03:53:11;17.58;;;11.82;;
21360;SDS011;10839;43.206;23.550;2023-05-14T03:55:37;21.35;;;14.10;;
21360;SDS011;10839;43.206;23.550;2023-05-14T03:58:03;27.52;;;19.60;;
21360;SDS011;10839;43.206;23.550;2023-05-14T04:00:35;22.23;;;14.55;;
21360;SDS011;10839;43.206;23.550;2023-05-14T04:03:02;18.02;;;12.98;;
21360;SDS011;10839;43.206;23.550;2023-05-14T04:05:28;15.65;;;11.32;;
21360;SDS011;10839;43.206;23.550;2023-05-14T04:07:54;16.90;;;11.70;;
21360;SDS011;10839;43.206;23.550;2023-05-14T04:10:19;17.50;;;12.35;;
21360;SDS011;10839;43.206;23.550;2023-05-14T04:12:45;19.13;;;13.60;;
21360;SDS011;10839;43.206;23.550;2023-05-14T04:15:13;16.13;;;10.25;;
21360;SDS011;10839;43.206;23.550;2023-05-14T04:17:38;16.38;;;10.90;;
21360;SDS011;10839;43.206;23.550;2023-05-14T04:20:04;23.02;;;14.88;;
21360;SDS011;10839;43.206;23.550;2023-05-14T04:22:32;14.18;;;10.20;;
21360;SDS011;10839;43.206;23.550;2023-05-14T04:24:58;15.02;;;10.27;;
21360;SDS011;10839;43.206;23.550;2023-05-14T04:27:24;15.63;;;8.70;;
21360;SDS011;10839;43.206;23.550;2023-05-14T04:29:50;10.95;;;6.45;;
21360;SDS011;10839;43.206;23.550;2023-05-14T04:32:15;7.07;;;5.60;;
21360;SDS011;10839;43.206;23.550;2023-05-14T04:34:42;5.63;;;4.97;;
21360;SDS011;10839;43.206;23.550;2023-05-14T04:37:08;7.00;;;5.03;;
21360;SDS011;10839;43.206;23.550;2023-05-14T04:39:34;6.47;;;4.50;;
21360;SDS011;10839;43.206;23.550;2023-05-14T04:42:00;6.95;;;5.55;;
21360;SDS011;10839;43.206;23.550;2023-05-14T04:44:25;7.65;;;4.88;;
21360;SDS011;10839;43.206;23.550;2023-05-14T04:46:51;7.45;;;4.75;;
21360;SDS011;10839;43.206;23.550;2023-05-14T04:49:17;9.48;;;6.35;;
21360;SDS011;10839;43.206;23.550;2023-05-14T04:51:43;11.80;;;9.23;;
21360;SDS011;10839;43.206;23.550;2023-05-14T04:54:08;18.15;;;9.80;;
21360;SDS011;10839;43.206;23.550;2023-05-14T04:56:34;12.27;;;9.05;;
21360;SDS011;10839;43.206;23.550;2023-05-14T04:59:00;31.55;;;19.85;;
21360;SDS011;10839;43.206;23.550;2023-05-14T05:01:26;53.80;;;30.65;;
21360;SDS011;10839;43.206;23.550;2023-05-14T05:03:52;61.75;;;36.80;;
21360;SDS011;10839;43.206;23.550;2023-05-14T05:06:17;29.08;;;20.45;;
21360;SDS011;10839;43.206;23.550;2023-05-14T05:08:43;17.23;;;12.80;;
21360;SDS011;10839;43.206;23.550;2023-05-14T05:11:09;17.83;;;13.82;;
21360;SDS011;10839;43.206;23.550;2023-05-14T05:13:35;22.67;;;13.48;;
21360;SDS011;10839;43.206;23.550;2023-05-14T05:16:00;17.67;;;13.07;;
21360;SDS011;10839;43.206;23.550;2023-05-14T05:18:26;18.30;;;14.25;;
21360;SDS011;10839;43.206;23.550;2023-05-14T05:20:52;19.77;;;12.85;;
21360;SDS011;10839;43.206;23.550;2023-05-14T05:23:18;17.95;;;11.85;;
21360;SDS011;10839;43.206;23.550;2023-05-14T05:25:44;19.73;;;12.90;;
21360;SDS011;10839;43.206;23.550;2023-05-14T05:28:10;20.02;;;13.32;;
21360;SDS011;10839;43.206;23.550;2023-05-14T05:30:35;21.27;;;14.15;;
21360;SDS011;10839;43.206;23.550;2023-05-14T05:33:01;21.77;;;13.45;;
21360;SDS011;10839;43.206;23.550;2023-05-14T05:35:27;16.65;;;13.18;;
21360;SDS011;10839;43.206;23.550;2023-05-14T05:37:53;18.67;;;12.73;;
21360;SDS011;10839;43.206;23.550;2023-05-14T05:40:19;24.48;;;15.85;;
21360;SDS011;10839;43.206;23.550;2023-05-14T05:42:44;46.45;;;27.63;;
21360;SDS011;10839;43.206;23.550;2023-05-14T05:45:10;32.10;;;20.77;;
21360;SDS011;10839;43.206;23.550;2023-05-14T05:47:36;21.45;;;14.90;;
21360;SDS011;10839;43.206;23.550;2023-05-14T05:50:02;20.77;;;14.38;;
21360;SDS011;10839;43.206;23.550;2023-05-14T05:52:28;19.17;;;13.95;;
21360;SDS011;10839;43.206;23.550;2023-05-14T05:54:53;20.70;;;13.45;;
21360;SDS011;10839;43.206;23.550;2023-05-14T05:57:19;19.00;;;12.95;;
21360;SDS011;10839;43.206;23.550;2023-05-14T05:59:47;18.13;;;13.32;;
21360;SDS011;10839;43.206;23.550;2023-05-14T06:02:13;40.38;;;28.63;;
21360;SDS011;10839;43.206;23.550;2023-05-14T06:04:39;71.70;;;44.42;;
21360;SDS011;10839;43.206;23.550;2023-05-14T06:07:05;56.28;;;36.70;;
21360;SDS011;10839;43.206;23.550;2023-05-14T06:09:30;41.90;;;25.27;;
21360;SDS011;10839;43.206;23.550;2023-05-14T06:11:56;28.63;;;16.67;;
21360;SDS011;10839;43.206;23.550;2023-05-14T06:14:22;22.15;;;13.98;;
21360;SDS011;10839;43.206;23.550;2023-05-14T06:16:48;19.50;;;13.52;;
21360;SDS011;10839;43.206;23.550;2023-05-14T06:19:13;19.92;;;13.90;;
21360;SDS011;10839;43.206;23.550;2023-05-14T06:21:39;18.63;;;13.27;;
21360;SDS011;10839;43.206;23.550;2023-05-14T06:24:05;20.77;;;12.82;;
21360;SDS011;10839;43.206;23.550;2023-05-14T06:26:31;18.23;;;12.57;;
21360;SDS011;10839;43.206;23.550;2023-05-14T06:28:57;28.50;;;18.48;;
21360;SDS011;10839;43.206;23.550;2023-05-14T06:31:23;21.25;;;14.10;;
21360;SDS011;10839;43.206;23.550;2023-05-14T06:33:49;24.83;;;15.93;;
21360;SDS011;10839;43.206;23.550;2023-05-14T06:36:15;18.25;;;13.57;;
21360;SDS011;10839;43.206;23.550;2023-05-14T06:38:40;16.17;;;13.18;;
21360;SDS011;10839;43.206;23.550;2023-05-14T06:41:06;24.23;;;17.02;;
21360;SDS011;10839;43.206;23.550;2023-05-14T06:43:32;37.08;;;24.85;;
21360;SDS011;10839;43.206;23.550;2023-05-14T06:45:58;16.75;;;13.30;;
21360;SDS011;10839;43.206;23.550;2023-05-14T06:48:24;18.02;;;12.10;;
21360;SDS011;10839;43.206;23.550;2023-05-14T06:50:52;17.00;;;12.90;;
21360;SDS011;10839;43.206;23.550;2023-05-14T06:53:17;22.45;;;15.75;;
21360;SDS011;10839;43.206;23.550;2023-05-14T06:55:43;23.90;;;16.80;;
21360;SDS011;10839;43.206;23.550;2023-05-14T06:58:12;22.33;;;17.13;;
21360;SDS011;10839;43.206;23.550;2023-05-14T07:00:38;23.58;;;16.63;;
21360;SDS011;10839;43.206;23.550;2023-05-14T07:03:04;23.70;;;16.85;;
21360;SDS011;10839;43.206;23.550;2023-05-14T07:05:30;21.73;;;16.08;;
21360;SDS011;10839;43.206;23.550;2023-05-14T07:07:56;21.38;;;14.50;;
21360;SDS011;10839;43.206;23.550;2023-05-14T07:10:22;22.00;;;14.50;;
21360;SDS011;10839;43.206;23.550;2023-05-14T07:12:48;20.98;;;13.68;;
21360;SDS011;10839;43.206;23.550;2023-05-14T07:15:14;21.20;;;14.07;;
21360;SDS011;10839;43.206;23.550;2023-05-14T07:17:40;37.80;;;24.75;;
21360;SDS011;10839;43.206;23.550;2023-05-14T07:20:06;99.95;;;60.13;;
21360;SDS011;10839;43.206;23.550;2023-05-14T07:22:32;85.85;;;54.20;;
21360;SDS011;10839;43.206;23.550;2023-05-14T07:24:58;42.20;;;28.60;;
21360;SDS011;10839;43.206;23.550;2023-05-14T07:27:24;24.75;;;17.48;;
21360;SDS011;10839;43.206;23.550;2023-05-14T07:29:50;21.20;;;16.13;;
21360;SDS011;10839;43.206;23.550;2023-05-14T07:32:15;22.45;;;16.23;;
21360;SDS011;10839;43.206;23.550;2023-05-14T07:34:41;19.33;;;14.35;;
21360;SDS011;10839;43.206;23.550;2023-05-14T07:37:07;18.85;;;14.77;;
21360;SDS011;10839;43.206;23.550;2023-05-14T07:39:33;18.38;;;13.55;;
21360;SDS011;10839;43.206;23.550;2023-05-14T07:41:59;16.42;;;11.98;;
21360;SDS011;10839;43.206;23.550;2023-05-14T07:44:25;17.40;;;13.38;;
21360;SDS011;10839;43.206;23.550;2023-05-14T07:46:51;20.58;;;15.75;;
21360;SDS011;10839;43.206;23.550;2023-05-14T07:49:17;16.45;;;13.38;;
21360;SDS011;10839;43.206;23.550;2023-05-14T07:51:43;23.27;;;13.68;;
21360;SDS011;10839;43.206;23.550;2023-05-14T07:54:08;16.13;;;12.93;;
21360;SDS011;10839;43.206;23.550;2023-05-14T07:56:35;17.55;;;13.43;;
21360;SDS011;10839;43.206;23.550;2023-05-14T07:59:01;18.80;;;13.88;;
21360;SDS011;10839;43.206;23.550;2023-05-14T08:01:27;18.95;;;14.35;;
21360;SDS011;10839;43.206;23.550;2023-05-14T08:03:52;26.65;;;17.75;;
21360;SDS011;10839;43.206;23.550;2023-05-14T08:06:18;26.08;;;17.60;;
21360;SDS011;10839;43.206;23.550;2023-05-14T08:08:46;21.80;;;15.80;;
21360;SDS011;10839;43.206;23.550;2023-05-14T08:11:12;23.90;;;15.00;;
21360;SDS011;10839;43.206;23.550;2023-05-14T08:13:37;18.42;;;14.85;;
21360;SDS011;10839;43.206;23.550;2023-05-14T08:16:03;18.13;;;12.85;;
21360;SDS011;10839;43.206;23.550;2023-05-14T08:18:29;16.27;;;12.70;;
21360;SDS011;10839;43.206;23.550;2023-05-14T08:20:55;18.90;;;14.65;;
21360;SDS011;10839;43.206;23.550;2023-05-14T08:23:21;19.05;;;15.50;;
21360;SDS011;10839;43.206;23.550;2023-05-14T08:25:47;20.83;;;15.07;;
21360;SDS011;10839;43.206;23.550;2023-05-14T08:28:12;23.00;;;16.70;;
21360;SDS011;10839;43.206;23.550;2023-05-14T08:30:38;19.02;;;15.45;;
21360;SDS011;10839;43.206;23.550;2023-05-14T08:33:04;37.67;;;24.50;;
21360;SDS011;10839;43.206;23.550;2023-05-14T08:35:30;19.73;;;15.48;;
21360;SDS011;10839;43.206;23.550;2023-05-14T08:37:56;18.52;;;13.13;;
21360;SDS011;10839;43.206;23.550;2023-05-14T08:40:21;21.60;;;15.32;;
21360;SDS011;10839;43.206;23.550;2023-05-14T08:42:47;18.05;;;11.90;;
21360;SDS011;10839;43.206;23.550;2023-05-14T08:45:16;19.92;;;15.48;;
21360;SDS011;10839;43.206;23.550;2023-05-14T08:47:47;18.15;;;13.70;;
21360;SDS011;10839;43.206;23.550;2023-05-14T08:50:15;16.40;;;11.38;;
21360;SDS011;10839;43.206;23.550;2023-05-14T08:52:43;15.07;;;11.63;;
21360;SDS011;10839;43.206;23.550;2023-05-14T08:55:09;20.95;;;13.77;;
21360;SDS011;10839;43.206;23.550;2023-05-14T08:57:36;15.73;;;12.13;;
21360;SDS011;10839;43.206;23.550;2023-05-14T09:00:03;15.00;;;11.60;;
21360;SDS011;10839;43.206;23.550;2023-05-14T09:02:32;16.25;;;9.82;;
21360;SDS011;10839;43.206;23.550;2023-05-14T09:05:00;17.88;;;11.15;;
21360;SDS011;10839;43.206;23.550;2023-05-14T09:07:28;14.13;;;10.93;;
21360;SDS011;10839;43.206;23.550;2023-05-14T09:09:54;13.93;;;9.40;;
21360;SDS011;10839;43.206;23.550;2023-05-14T09:12:20;14.15;;;10.32;;
21360;SDS011;10839;43.206;23.550;2023-05-14T09:14:47;13.10;;;8.70;;
21360;SDS011;10839;43.206;23.550;2023-05-14T09:17:13;13.73;;;8.80;;
21360;SDS011;10839;43.206;23.550;2023-05-14T09:19:41;14.35;;;9.52;;
21360;SDS011;10839;43.206;23.550;2023-05-14T09:22:08;14.93;;;9.27;;
21360;SDS011;10839;43.206;23.550;2023-05-14T09:24:36;12.15;;;7.88;;
21360;SDS011;10839;43.206;23.550;2023-05-14T09:27:06;11.45;;;7.63;;
21360;SDS011;10839;43.206;23.550;2023-05-14T09:29:32;10.68;;;7.28;;
21360;SDS011;10839;43.206;23.550;2023-05-14T09:31:59;10.38;;;7.47;;
21360;SDS011;10839;43.206;23.550;2023-05-14T09:34:30;11.10;;;7.05;;
21360;SDS011;10839;43.206;23.550;2023-05-14T09:37:02;8.95;;;6.75;;
21360;SDS011;10839;43.206;23.550;2023-05-14T09:39:32;13.00;;;7.30;;
21360;SDS011;10839;43.206;23.550;2023-05-14T09:41:58;9.57;;;7.57;;
21360;SDS011;10839;43.206;23.550;2023-05-14T09:44:24;9.40;;;7.18;;
21360;SDS011;10839;43.206;23.550;2023-05-14T09:46:52;12.45;;;8.07;;
21360;SDS011;10839;43.206;23.550;2023-05-14T09:49:18;8.95;;;7.72;;
21360;SDS011;10839;43.206;23.550;2023-05-14T09:51:44;10.27;;;7.45;;
21360;SDS011;10839;43.206;23.550;2023-05-14T09:54:10;10.57;;;8.15;;
21360;SDS011;10839;43.206;23.550;2023-05-14T09:56:36;12.93;;;8.63;;
21360;SDS011;10839;43.206;23.550;2023-05-14T09:59:04;15.85;;;10.27;;
21360;SDS011;10839;43.206;23.550;2023-05-14T10:01:30;11.45;;;9.48;;
21360;SDS011;10839;43.206;23.550;2023-05-14T10:04:01;16.40;;;10.95;;
21360;SDS011;10839;43.206;23.550;2023-05-14T10:06:32;13.43;;;8.43;;
21360;SDS011;10839;43.206;23.550;2023-05-14T10:09:04;11.50;;;7.63;;
21360;SDS011;10839;43.206;23.550;2023-05-14T10:11:37;9.20;;;6.70;;
21360;SDS011;10839;43.206;23.550;2023-05-14T10:14:08;9.35;;;8.10;;
21360;SDS011;10839;43.206;23.550;2023-05-14T10:16:47;13.35;;;9.68;;
21360;SDS011;10839;43.206;23.550;2023-05-14T10:19:15;11.52;;;9.07;;
21360;SDS011;10839;43.206;23.550;2023-05-14T10:21:52;7.78;;;6.70;;
21360;SDS011;10839;43.206;23.550;2023-05-14T10:24:21;11.88;;;8.50;;
21360;SDS011;10839;43.206;23.550;2023-05-14T10:26:48;10.25;;;6.45;;
21360;SDS011;10839;43.206;23.550;2023-05-14T10:29:14;8.45;;;5.68;;
21360;SDS011;10839;43.206;23.550;2023-05-14T10:37:24;9.27;;;6.13;;
21360;SDS011;10839;43.206;23.550;2023-05-14T10:39:50;8.95;;;6.95;;
21360;SDS011;10839;43.206;23.550;2023-05-14T10:44:55;12.07;;;6.40;;
21360;SDS011;10839;43.206;23.550;2023-05-14T10:47:30;10.45;;;6.45;;
21360;SDS011;10839;43.206;23.550;2023-05-14T10:49:57;10.55;;;6.47;;
21360;SDS011;10839;43.206;23.550;2023-05-14T10:52:24;8.82;;;6.85;;
21360;SDS011;10839;43.206;23.550;2023-05-14T10:54:51;9.32;;;6.40;;
21360;SDS011;10839;43.206;23.550;2023-05-14T10:57:21;8.77;;;6.43;;
21360;SDS011;10839;43.206;23.550;2023-05-14T10:59:50;7.53;;;6.25;;
21360;SDS011;10839;43.206;23.550;2023-05-14T11:02:20;8.10;;;6.47;;
21360;SDS011;10839;43.206;23.550;2023-05-14T11:04:59;8.45;;;6.25;;
21360;SDS011;10839;43.206;23.550;2023-05-14T11:07:31;7.72;;;6.63;;
21360;SDS011;10839;43.206;23.550;2023-05-14T11:10:09;7.68;;;6.28;;
21360;SDS011;10839;43.206;23.550;2023-05-14T11:12:40;7.55;;;6.53;;
21360;SDS011;10839;43.206;23.550;2023-05-14T11:15:08;11.20;;;7.32;;
21360;SDS011;10839;43.206;23.550;2023-05-14T11:17:36;12.65;;;7.10;;
21360;SDS011;10839;43.206;23.550;2023-05-14T11:20:05;9.38;;;6.35;;
21360;SDS011;10839;43.206;23.550;2023-05-14T11:22:32;7.85;;;7.05;;
21360;SDS011;10839;43.206;23.550;2023-05-14T11:24:59;9.82;;;7.25;;
21360;SDS011;10839;43.206;23.550;2023-05-14T11:27:25;11.30;;;7.95;;
21360;SDS011;10839;43.206;23.550;2023-05-14T11:29:51;8.93;;;6.85;;
21360;SDS011;10839;43.206;23.550;2023-05-14T11:32:17;7.80;;;6.30;;
21360;SDS011;10839;43.206;23.550;2023-05-14T11:34:44;12.13;;;7.35;;
21360;SDS011;10839;43.206;23.550;2023-05-14T11:37:11;12.40;;;7.70;;
21360;SDS011;10839;43.206;23.550;2023-05-14T11:39:38;10.32;;;7.57;;
21360;SDS011;10839;43.206;23.550;2023-05-14T11:42:11;9.40;;;7.73;;
21360;SDS011;10839;43.206;23.550;2023-05-14T11:44:39;11.57;;;7.90;;
21360;SDS011;10839;43.206;23.550;2023-05-14T11:47:06;13.45;;;8.95;;
21360;SDS011;10839;43.206;23.550;2023-05-14T11:49:32;10.43;;;8.70;;
21360;SDS011;10839;43.206;23.550;2023-05-14T11:52:00;12.23;;;8.70;;
21360;SDS011;10839;43.206;23.550;2023-05-14T11:54:28;10.40;;;8.13;;
21360;SDS011;10839;43.206;23.550;2023-05-14T11:56:55;10.13;;;7.40;;
21360;SDS011;10839;43.206;23.550;2023-05-14T11:59:28;10.52;;;6.88;;
21360;SDS011;10839;43.206;23.550;2023-05-14T12:01:56;10.80;;;7.15;;
21360;SDS011;10839;43.206;23.550;2023-05-14T12:04:22;9.45;;;6.53;;
21360;SDS011;10839;43.206;23.550;2023-05-14T12:06:48;9.32;;;6.72;;
21360;SDS011;10839;43.206;23.550;2023-05-14T12:09:16;15.02;;;7.03;;
21360;SDS011;10839;43.206;23.550;2023-05-14T12:11:43;9.60;;;6.65;;
21360;SDS011;10839;43.206;23.550;2023-05-14T12:14:14;8.60;;;6.65;;
21360;SDS011;10839;43.206;23.550;2023-05-14T12:16:42;8.60;;;7.30;;
21360;SDS011;10839;43.206;23.550;2023-05-14T12:19:09;8.23;;;6.40;;
21360;SDS011;10839;43.206;23.550;2023-05-14T12:21:37;11.88;;;6.80;;
21360;SDS011;10839;43.206;23.550;2023-05-14T12:24:03;9.55;;;6.65;;
21360;SDS011;10839;43.206;23.550;2023-05-14T12:26:32;10.65;;;6.47;;
21360;SDS011;10839;43.206;23.550;2023-05-14T12:28:59;9.00;;;6.45;;
21360;SDS011;10839;43.206;23.550;2023-05-14T12:31:32;11.90;;;5.90;;
21360;SDS011;10839;43.206;23.550;2023-05-14T12:34:00;10.15;;;6.88;;
21360;SDS011;10839;43.206;23.550;2023-05-14T12:36:28;7.93;;;6.25;;
21360;SDS011;10839;43.206;23.550;2023-05-14T12:39:00;10.52;;;6.60;;
21360;SDS011;10839;43.206;23.550;2023-05-14T12:41:31;10.40;;;6.65;;
21360;SDS011;10839;43.206;23.550;2023-05-14T12:43:58;11.52;;;6.68;;
21360;SDS011;10839;43.206;23.550;2023-05-14T12:46:24;8.07;;;6.78;;
21360;SDS011;10839;43.206;23.550;2023-05-14T12:48:52;12.05;;;8.70;;
21360;SDS011;10839;43.206;23.550;2023-05-14T12:51:18;12.10;;;7.65;;
21360;SDS011;10839;43.206;23.550;2023-05-14T12:53:44;10.35;;;7.72;;
21360;SDS011;10839;43.206;23.550;2023-05-14T12:56:10;9.88;;;7.57;;
21360;SDS011;10839;43.206;23.550;2023-05-14T12:58:37;11.60;;;7.70;;
21360;SDS011;10839;43.206;23.550;2023-05-14T13:01:03;15.68;;;11.48;;
21360;SDS011;10839;43.206;23.550;2023-05-14T13:03:29;16.50;;;11.55;;
21360;SDS011;10839;43.206;23.550;2023-05-14T13:05:55;14.18;;;11.20;;
21360;SDS011;10839;43.206;23.550;2023-05-14T13:11:07;10.73;;;7.68;;
21360;SDS011;10839;43.206;23.550;2023-05-14T13:13:33;9.70;;;7.20;;
21360;SDS011;10839;43.206;23.550;2023-05-14T13:15:58;9.52;;;7.55;;
21360;SDS011;10839;43.206;23.550;2023-05-14T13:18:25;11.07;;;8.15;;
21360;SDS011;10839;43.206;23.550;2023-05-14T13:20:51;12.57;;;7.30;;
21360;SDS011;10839;43.206;23.550;2023-05-14T13:23:16;9.77;;;7.38;;
21360;SDS011;10839;43.206;23.550;2023-05-14T13:25:42;11.75;;;8.25;;
21360;SDS011;10839;43.206;23.550;2023-05-14T13:28:08;12.35;;;8.93;;
21360;SDS011;10839;43.206;23.550;2023-05-14T13:30:34;13.10;;;9.18;;
21360;SDS011;10839;43.206;23.550;2023-05-14T13:33:00;12.52;;;8.98;;
21360;SDS011;10839;43.206;23.550;2023-05-14T13:35:25;11.85;;;8.82;;
21360;SDS011;10839;43.206;23.550;2023-05-14T13:37:51;12.85;;;9.85;;
21360;SDS011;10839;43.206;23.550;2023-05-14T13:40:17;11.18;;;8.00;;
21360;SDS011;10839;43.206;23.550;2023-05-14T13:42:43;9.93;;;7.10;;
21360;SDS011;10839;43.206;23.550;2023-05-14T13:45:09;8.85;;;7.07;;
21360;SDS011;10839;43.206;23.550;2023-05-14T13:47:36;9.68;;;7.63;;
21360;SDS011;10839;43.206;23.550;2023-05-14T13:50:01;12.80;;;8.90;;
21360;SDS011;10839;43.206;23.550;2023-05-14T13:52:27;9.18;;;7.05;;
21360;SDS011;10839;43.206;23.550;2023-05-14T13:54:53;11.23;;;7.22;;
21360;SDS011;10839;43.206;23.550;2023-05-14T13:57:19;8.43;;;7.00;;
21360;SDS011;10839;43.206;23.550;2023-05-14T13:59:46;10.02;;;7.72;;
21360;SDS011;10839;43.206;23.550;2023-05-14T14:02:12;10.15;;;8.23;;
21360;SDS011;10839;43.206;23.550;2023-05-14T14:04:38;10.10;;;6.63;;
21360;SDS011;10839;43.206;23.550;2023-05-14T14:07:03;7.45;;;5.55;;
21360;SDS011;10839;43.206;23.550;2023-05-14T14:09:29;11.00;;;6.43;;
21360;SDS011;10839;43.206;23.550;2023-05-14T14:12:02;6.18;;;5.57;;
21360;SDS011;10839;43.206;23.550;2023-05-14T14:14:28;8.77;;;7.22;;
21360;SDS011;10839;43.206;23.550;2023-05-14T14:16:54;16.13;;;9.90;;
21360;SDS011;10839;43.206;23.550;2023-05-14T14:19:20;32.80;;;19.85;;
21360;SDS011;10839;43.206;23.550;2023-05-14T14:21:46;18.80;;;13.85;;
21360;SDS011;10839;43.206;23.550;2023-05-14T14:24:12;11.57;;;7.93;;
21360;SDS011;10839;43.206;23.550;2023-05-14T14:26:37;9.88;;;7.60;;
21360;SDS011;10839;43.206;23.550;2023-05-14T14:29:03;7.43;;;5.45;;
21360;SDS011;10839;43.206;23.550;2023-05-14T14:31:29;7.25;;;5.82;;
21360;SDS011;10839;43.206;23.550;2023-05-14T14:33:55;9.05;;;5.38;;
21360;SDS011;10839;43.206;23.550;2023-05-14T14:36:21;6.05;;;5.25;;